Time;durP1;ratioP1;P1;durP2;ratioP2;P2;SDS_P1;SDS_P2;PMS_P1;PMS_P2;Temp;Humidity;BMP_temperature;BMP_pressure;BME280_temperature;BME280_humidity;BME280_pressure;Samples;Min_cycle;Max_cycle;Signal;HPM_P1;HPM_P2
2022/09/03 00:01:38;;;;;;;4.50;2.55;;;;;;;;;;1696922;83;21100;-62
2022/09/03 00:04:10;;;;;;;6.22;2.95;;;;;;;;;;1739914;81;21555;-61
2022/09/03 00:06:46;;;;;;;6.42;2.77;;;;;;;;;;1728840;82;21077;-61
2022/09/03 00:09:16;;;;;;;6.03;2.90;;;;;;;;;;1725935;82;21097;-62
2022/09/03 00:11:56;;;;;;;3.33;2.75;;;;;;;;;;1729538;82;21608;-62
2022/09/03 00:14:26;;;;;;;5.67;3.00;;;;;;;;;;1724883;82;21054;-62
2022/09/03 00:16:57;;;;;;;4.37;2.50;;;;;;;;;;1774803;79;21554;-61
2022/09/03 00:19:29;;;;;;;4.95;2.80;;;;;;;;;;1766017;79;21098;-62
2022/09/03 00:22:21;;;;;;;3.22;2.50;;;;;;;;;;1770889;80;21117;-61
2022/09/03 00:24:49;;;;;;;4.12;2.33;;;;;;;;;;1770673;80;21055;-62
2022/09/03 00:27:19;;;;;;;6.65;2.30;;;;;;;;;;1772211;80;21026;-61
2022/09/03 00:29:52;;;;;;;4.20;2.80;;;;;;;;;;1772215;79;21137;-62
2022/09/03 00:32:22;;;;;;;4.35;2.35;;;;;;;;;;1774740;80;21046;-62
2022/09/03 00:34:52;;;;;;;6.83;2.62;;;;;;;;;;1770115;80;21519;-61
2022/09/03 00:37:19;;;;;;;4.60;2.42;;;;;;;;;;1775457;80;21042;-61
2022/09/03 00:39:46;;;;;;;3.98;2.37;;;;;;;;;;1776979;80;21007;-61
2022/09/03 00:42:39;;;;;;;3.02;2.37;;;;;;;;;;1774414;80;21637;-61
2022/09/03 00:45:12;;;;;;;6.60;3.00;;;;;;;;;;1775165;80;21035;-61
2022/09/03 00:48:04;;;;;;;7.05;2.72;;;;;;;;;;1775049;80;21102;-61
2022/09/03 00:50:59;;;;;;;4.87;2.50;;;;;;;;;;1775515;80;21098;-61
2022/09/03 00:53:50;;;;;;;4.67;2.40;;;;;;;;;;1775577;80;21003;-61
2022/09/03 00:56:24;;;;;;;6.65;2.50;;;;;;;;;;1773809;79;21058;-62
2022/09/03 00:58:54;;;;;;;5.10;2.80;;;;;;;;;;1775429;79;21022;-61
2022/09/03 01:01:32;;;;;;;5.60;2.50;;;;;;;;;;1774773;80;21074;-61
2022/09/03 01:04:09;;;;;;;4.30;2.42;;;;;;;;;;1771762;80;21031;-62
2022/09/03 01:06:59;;;;;;;3.98;2.60;;;;;;;;;;1713988;82;21128;-62
2022/09/03 01:09:39;;;;;;;4.20;2.60;;;;;;;;;;1695586;84;21040;-62
2022/09/03 01:12:19;;;;;;;4.05;2.45;;;;;;;;;;1766702;80;21096;-62
2022/09/03 01:15:10;;;;;;;4.37;2.47;;;;;;;;;;1777073;80;21034;-61
2022/09/03 01:17:47;;;;;;;4.92;2.50;;;;;;;;;;1723747;82;21132;-62
2022/09/03 01:20:38;;;;;;;3.60;2.60;;;;;;;;;;1776644;80;21078;-62
2022/09/03 01:23:25;;;;;;;5.78;2.65;;;;;;;;;;1776250;80;21058;-62
2022/09/03 01:25:56;;;;;;;3.67;2.45;;;;;;;;;;1775412;80;21105;-62
2022/09/03 01:28:39;;;;;;;4.85;2.85;;;;;;;;;;1773849;80;21034;-62
2022/09/03 01:31:12;;;;;;;3.27;2.40;;;;;;;;;;1774317;81;21057;-61
2022/09/03 01:33:42;;;;;;;4.22;2.72;;;;;;;;;;1776572;80;21043;-62
2022/09/03 01:36:34;;;;;;;3.80;2.55;;;;;;;;;;1771858;80;21102;-62
2022/09/03 01:39:04;;;;;;;4.40;2.58;;;;;;;;;;1710901;80;21031;-62
2022/09/03 01:44:39;;;;;;;6.30;2.30;;;;;;;;;;1776263;80;21019;-62
2022/09/03 01:47:17;;;;;;;4.62;2.50;;;;;;;;;;1772938;80;21514;-62
2022/09/03 01:49:50;;;;;;;3.55;2.20;;;;;;;;;;1763829;80;21574;-62
2022/09/03 01:52:35;;;;;;;4.30;2.62;;;;;;;;;;1719472;82;21046;-61
2022/09/03 01:55:11;;;;;;;3.08;2.30;;;;;;;;;;1773899;80;21067;-62
2022/09/03 01:57:48;;;;;;;4.50;2.27;;;;;;;;;;1768907;80;21031;-62
2022/09/03 02:00:19;;;;;;;3.45;2.30;;;;;;;;;;1772058;80;21121;-62
2022/09/03 02:02:49;;;;;;;4.87;2.55;;;;;;;;;;1774131;81;20999;-61
2022/09/03 02:05:23;;;;;;;5.40;2.87;;;;;;;;;;1764280;79;21003;-62
2022/09/03 02:08:01;;;;;;;4.97;2.70;;;;;;;;;;1772750;80;21539;-62
2022/09/03 02:10:32;;;;;;;5.42;2.80;;;;;;;;;;1772624;79;21031;-62
2022/09/03 02:13:07;;;;;;;3.33;2.35;;;;;;;;;;1774246;80;20975;-61
2022/09/03 02:15:37;;;;;;;6.22;2.85;;;;;;;;;;1770868;80;21879;-61
2022/09/03 02:18:07;;;;;;;6.90;3.40;;;;;;;;;;1775263;79;21035;-61
2022/09/03 02:20:34;;;;;;;6.62;3.67;;;;;;;;;;1770359;80;21025;-61
2022/09/03 02:23:01;;;;;;;6.70;3.30;;;;;;;;;;1779161;80;21514;-61
2022/09/03 02:25:34;;;;;;;5.80;3.12;;;;;;;;;;1776547;80;21035;-61
2022/09/03 02:28:04;;;;;;;7.92;2.90;;;;;;;;;;1725793;82;21076;-62
2022/09/03 02:30:31;;;;;;;5.90;2.87;;;;;;;;;;1771380;80;21027;-61
2022/09/03 02:32:58;;;;;;;6.50;2.50;;;;;;;;;;1759383;80;21008;-61
2022/09/03 02:35:26;;;;;;;3.87;2.58;;;;;;;;;;1773077;80;21048;-61
2022/09/03 02:37:53;;;;;;;4.25;2.52;;;;;;;;;;1765587;80;21031;-61
2022/09/03 02:40:19;;;;;;;3.50;2.67;;;;;;;;;;1773359;80;21121;-61
2022/09/03 02:42:47;;;;;;;5.37;2.40;;;;;;;;;;1774028;80;21070;-61
2022/09/03 02:45:26;;;;;;;3.77;2.20;;;;;;;;;;1772083;80;20995;-62
2022/09/03 02:47:59;;;;;;;3.98;2.33;;;;;;;;;;1770903;80;21046;-62
2022/09/03 02:50:26;;;;;;;4.62;2.45;;;;;;;;;;1769382;80;21031;-62
2022/09/03 02:52:53;;;;;;;5.90;2.60;;;;;;;;;;1777349;80;21031;-61
2022/09/03 02:55:20;;;;;;;5.65;2.55;;;;;;;;;;1764475;80;21079;-62
2022/09/03 02:57:47;;;;;;;6.42;2.42;;;;;;;;;;1769528;80;21067;-62
2022/09/03 03:00:14;;;;;;;6.37;2.42;;;;;;;;;;1770944;81;21047;-63
2022/09/03 03:02:43;;;;;;;3.10;1.90;;;;;;;;;;1768684;80;21546;-61
2022/09/03 03:05:12;;;;;;;4.60;2.25;;;;;;;;;;1776678;79;21027;-61
2022/09/03 03:07:40;;;;;;;4.15;2.58;;;;;;;;;;1773167;80;21063;-62
2022/09/03 03:10:08;;;;;;;3.27;2.20;;;;;;;;;;1763403;80;21019;-62
2022/09/03 03:12:35;;;;;;;3.75;2.10;;;;;;;;;;1767896;80;21071;-62
2022/09/03 03:15:03;;;;;;;5.60;2.25;;;;;;;;;;1774476;80;21143;-62
2022/09/03 03:17:32;;;;;;;3.72;2.10;;;;;;;;;;1767438;80;21035;-62
2022/09/03 03:19:59;;;;;;;5.05;2.30;;;;;;;;;;1770762;80;21023;-62
2022/09/03 03:22:26;;;;;;;3.45;1.82;;;;;;;;;;1772398;80;21038;-62
2022/09/03 03:24:54;;;;;;;3.92;2.08;;;;;;;;;;1747628;80;21003;-61
2022/09/03 03:27:20;;;;;;;9.28;2.20;;;;;;;;;;1768999;80;21015;-62
2022/09/03 03:29:47;;;;;;;3.98;2.12;;;;;;;;;;1766849;81;21007;-63
2022/09/03 03:32:13;;;;;;;3.95;2.10;;;;;;;;;;1770546;80;21098;-62
2022/09/03 03:34:42;;;;;;;6.65;2.10;;;;;;;;;;1774102;80;21035;-62
2022/09/03 03:37:08;;;;;;;6.35;2.10;;;;;;;;;;1770748;81;21008;-62
2022/09/03 03:39:36;;;;;;;5.75;2.40;;;;;;;;;;1771330;80;21079;-62
2022/09/03 03:42:03;;;;;;;3.95;2.02;;;;;;;;;;1774111;80;21504;-62
2022/09/03 03:44:30;;;;;;;5.15;2.22;;;;;;;;;;1775308;80;20984;-62
2022/09/03 03:46:57;;;;;;;4.17;2.40;;;;;;;;;;1771072;80;21763;-62
2022/09/03 03:49:23;;;;;;;5.05;1.90;;;;;;;;;;1774078;80;21523;-62
2022/09/03 03:51:50;;;;;;;6.15;2.40;;;;;;;;;;1773053;79;21027;-62
2022/09/03 03:54:17;;;;;;;6.75;2.10;;;;;;;;;;1776650;80;21031;-62
2022/09/03 03:56:44;;;;;;;6.03;2.42;;;;;;;;;;1772112;80;21071;-61
2022/09/03 03:59:10;;;;;;;5.75;2.50;;;;;;;;;;1765903;80;21078;-61
2022/09/03 04:01:37;;;;;;;5.95;2.20;;;;;;;;;;1772145;80;21027;-62
2022/09/03 04:04:04;;;;;;;5.37;2.10;;;;;;;;;;1773684;80;20991;-61
2022/09/03 04:06:31;;;;;;;6.78;2.55;;;;;;;;;;1772573;79;21528;-62
2022/09/03 04:08:57;;;;;;;5.05;2.35;;;;;;;;;;1773022;80;21071;-61
2022/09/03 04:11:25;;;;;;;8.05;2.00;;;;;;;;;;1773895;80;21560;-62
2022/09/03 04:13:54;;;;;;;5.05;2.27;;;;;;;;;;1773226;80;21027;-61
2022/09/03 04:16:23;;;;;;;3.33;2.20;;;;;;;;;;1772130;80;21070;-62
2022/09/03 04:18:54;;;;;;;5.25;2.40;;;;;;;;;;1717858;82;21049;-62
2022/09/03 04:21:29;;;;;;;4.37;2.20;;;;;;;;;;1764963;80;21039;-62
2022/09/03 04:23:57;;;;;;;7.15;2.55;;;;;;;;;;1767444;80;21082;-62
2022/09/03 04:26:32;;;;;;;6.95;2.47;;;;;;;;;;1762463;80;21050;-63
2022/09/03 04:29:02;;;;;;;3.12;2.00;;;;;;;;;;1772529;80;21511;-62
2022/09/03 04:31:29;;;;;;;4.40;2.37;;;;;;;;;;1769399;80;21065;-62
2022/09/03 04:33:56;;;;;;;6.15;2.20;;;;;;;;;;1742220;80;21499;-62
2022/09/03 04:36:26;;;;;;;7.30;2.20;;;;;;;;;;1772567;80;21034;-61
2022/09/03 04:38:54;;;;;;;5.83;2.25;;;;;;;;;;1765602;80;21878;-62
2022/09/03 04:41:26;;;;;;;5.87;2.20;;;;;;;;;;1771529;80;21144;-62
2022/09/03 04:43:54;;;;;;;2.77;2.17;;;;;;;;;;1775397;80;21007;-62
2022/09/03 04:46:24;;;;;;;6.05;2.22;;;;;;;;;;1773005;80;21035;-62
2022/09/03 04:48:53;;;;;;;4.80;2.30;;;;;;;;;;1755804;80;21010;-62
2022/09/03 04:51:23;;;;;;;4.85;2.10;;;;;;;;;;1775009;80;21014;-62
2022/09/03 04:53:59;;;;;;;5.15;2.17;;;;;;;;;;1776508;80;21070;-62
2022/09/03 04:56:28;;;;;;;5.05;2.17;;;;;;;;;;1772787;81;21772;-64
2022/09/03 04:59:06;;;;;;;5.85;2.50;;;;;;;;;;1774958;80;21062;-61
2022/09/03 05:01:34;;;;;;;5.62;2.12;;;;;;;;;;1769720;80;21164;-62
2022/09/03 05:04:02;;;;;;;4.58;2.10;;;;;;;;;;1762888;80;21020;-62
2022/09/03 05:06:30;;;;;;;8.93;2.10;;;;;;;;;;1773628;79;21558;-62
2022/09/03 05:08:58;;;;;;;4.25;2.15;;;;;;;;;;1776700;80;21023;-61
2022/09/03 05:11:26;;;;;;;5.80;2.02;;;;;;;;;;1770398;80;21141;-62
2022/09/03 05:13:55;;;;;;;5.00;2.05;;;;;;;;;;1777195;80;21025;-62
2022/09/03 05:16:23;;;;;;;6.08;2.17;;;;;;;;;;1772652;80;21038;-62
2022/09/03 05:18:55;;;;;;;3.25;2.20;;;;;;;;;;1772728;80;21066;-62
2022/09/03 05:21:23;;;;;;;6.83;1.95;;;;;;;;;;1777349;80;21023;-61
2022/09/03 05:23:51;;;;;;;6.35;2.10;;;;;;;;;;1771993;80;21550;-62
2022/09/03 05:26:20;;;;;;;7.30;2.12;;;;;;;;;;1777900;80;21082;-62
2022/09/03 05:28:47;;;;;;;6.83;1.85;;;;;;;;;;1775540;80;21062;-62
2022/09/03 05:31:16;;;;;;;5.83;1.87;;;;;;;;;;1772863;80;21097;-62
2022/09/03 05:33:51;;;;;;;7.83;2.10;;;;;;;;;;1763920;80;21035;-62
2022/09/03 05:36:21;;;;;;;4.47;2.20;;;;;;;;;;1775919;80;21066;-63
2022/09/03 05:38:49;;;;;;;5.85;1.92;;;;;;;;;;1776855;80;21073;-62
2022/09/03 05:41:17;;;;;;;4.80;1.87;;;;;;;;;;1767982;80;20976;-63
2022/09/03 05:43:44;;;;;;;4.22;1.85;;;;;;;;;;1763978;80;21060;-63
2022/09/03 05:46:14;;;;;;;4.65;2.27;;;;;;;;;;1763273;80;21028;-62
2022/09/03 05:48:41;;;;;;;6.62;1.98;;;;;;;;;;1757412;80;21476;-62
2022/09/03 05:51:15;;;;;;;6.97;1.95;;;;;;;;;;1755009;81;21043;-62
2022/09/03 05:53:47;;;;;;;4.58;2.25;;;;;;;;;;1768862;81;21519;-62
2022/09/03 05:56:17;;;;;;;5.42;2.27;;;;;;;;;;1774191;80;21071;-62
2022/09/03 05:58:49;;;;;;;5.53;2.10;;;;;;;;;;1744869;80;21161;-63
2022/09/03 06:01:27;;;;;;;4.97;2.30;;;;;;;;;;1761040;81;21040;-62
2022/09/03 06:03:57;;;;;;;4.87;2.05;;;;;;;;;;1754215;80;21519;-63
2022/09/03 06:06:25;;;;;;;7.00;2.40;;;;;;;;;;1762505;80;20999;-62
2022/09/03 06:08:54;;;;;;;5.03;1.80;;;;;;;;;;1765879;80;21012;-63
2022/09/03 06:11:25;;;;;;;4.72;2.20;;;;;;;;;;1772979;80;21058;-62
2022/09/03 06:13:50;;;;;;;3.77;2.52;;;;;;;;;;1755544;80;21066;-62
2022/09/03 06:16:17;;;;;;;3.15;2.15;;;;;;;;;;1757438;81;21047;-63
2022/09/03 06:18:44;;;;;;;5.15;2.85;;;;;;;;;;1762412;80;21063;-63
2022/09/03 06:21:11;;;;;;;4.28;2.52;;;;;;;;;;1758754;80;20991;-63
2022/09/03 06:23:38;;;;;;;3.12;2.10;;;;;;;;;;1763260;79;21173;-63
2022/09/03 06:26:07;;;;;;;5.28;2.30;;;;;;;;;;1764719;80;21014;-63
2022/09/03 06:28:35;;;;;;;7.17;1.95;;;;;;;;;;1765028;80;21768;-63
2022/09/03 06:31:03;;;;;;;3.87;1.92;;;;;;;;;;1757003;79;21071;-62
2022/09/03 06:33:32;;;;;;;7.65;2.05;;;;;;;;;;1768284;80;20994;-63
2022/09/03 06:36:00;;;;;;;4.33;1.67;;;;;;;;;;1776921;79;20972;-62
2022/09/03 06:38:30;;;;;;;5.80;1.80;;;;;;;;;;1767810;80;21054;-62
2022/09/03 06:41:03;;;;;;;5.42;1.70;;;;;;;;;;1769607;80;21503;-62
2022/09/03 06:43:32;;;;;;;4.55;1.60;;;;;;;;;;1771410;80;21550;-62
2022/09/03 06:46:00;;;;;;;4.40;1.92;;;;;;;;;;1775154;80;21561;-62
2022/09/03 06:48:28;;;;;;;6.33;1.80;;;;;;;;;;1771982;80;21471;-62
2022/09/03 06:51:00;;;;;;;4.85;1.57;;;;;;;;;;1746118;81;21054;-63
2022/09/03 06:53:29;;;;;;;3.25;1.70;;;;;;;;;;1723616;82;21521;-63
2022/09/03 06:55:59;;;;;;;5.25;1.77;;;;;;;;;;1716289;82;21073;-62
2022/09/03 06:58:30;;;;;;;5.00;1.87;;;;;;;;;;1682043;83;21095;-62
2022/09/03 07:01:06;;;;;;;4.17;1.62;;;;;;;;;;1774269;80;21559;-63
2022/09/03 07:03:34;;;;;;;5.42;1.70;;;;;;;;;;1773710;80;21019;-62
2022/09/03 07:06:05;;;;;;;4.22;1.60;;;;;;;;;;1763881;80;21035;-62
2022/09/03 07:08:33;;;;;;;5.00;1.67;;;;;;;;;;1771554;80;21060;-62
2022/09/03 07:11:04;;;;;;;9.38;1.70;;;;;;;;;;1763192;80;21046;-63
2022/09/03 07:13:33;;;;;;;3.67;1.70;;;;;;;;;;1761051;80;21036;-63
2022/09/03 07:16:05;;;;;;;2.98;1.80;;;;;;;;;;1763528;80;21050;-63
2022/09/03 07:18:33;;;;;;;4.78;1.50;;;;;;;;;;1772345;79;21129;-63
2022/09/03 07:21:03;;;;;;;7.65;1.80;;;;;;;;;;1766697;80;21024;-64
2022/09/03 07:23:31;;;;;;;4.03;1.80;;;;;;;;;;1763503;79;20999;-63
2022/09/03 07:26:09;;;;;;;6.10;1.87;;;;;;;;;;1774271;80;21023;-62
2022/09/03 07:28:37;;;;;;;3.58;1.60;;;;;;;;;;1772646;80;21099;-63
2022/09/03 07:31:07;;;;;;;5.42;1.70;;;;;;;;;;1715944;81;21075;-63
2022/09/03 07:33:34;;;;;;;5.20;1.80;;;;;;;;;;1763531;79;21036;-63
2022/09/03 07:36:05;;;;;;;6.58;1.67;;;;;;;;;;1725661;80;21043;-64
2022/09/03 07:38:33;;;;;;;7.50;1.72;;;;;;;;;;1763997;79;21016;-64
2022/09/03 07:41:01;;;;;;;6.00;1.70;;;;;;;;;;1760557;80;21042;-63
2022/09/03 07:43:29;;;;;;;4.75;1.60;;;;;;;;;;1773228;80;21038;-63
2022/09/03 07:45:56;;;;;;;5.25;2.08;;;;;;;;;;1754314;80;21066;-64
2022/09/03 07:48:23;;;;;;;4.05;1.60;;;;;;;;;;1768347;81;21039;-63
2022/09/03 07:50:50;;;;;;;9.03;1.60;;;;;;;;;;1762725;80;21065;-64
2022/09/03 07:53:19;;;;;;;4.70;1.70;;;;;;;;;;1769374;80;21067;-63
2022/09/03 07:55:47;;;;;;;5.35;1.80;;;;;;;;;;1763421;80;21097;-63
2022/09/03 07:58:14;;;;;;;7.80;2.20;;;;;;;;;;1757963;80;21059;-63
2022/09/03 08:00:41;;;;;;;3.72;2.30;;;;;;;;;;1765994;80;21078;-64
2022/09/03 08:03:09;;;;;;;5.97;1.62;;;;;;;;;;1766908;79;21605;-64
2022/09/03 08:05:37;;;;;;;3.65;1.60;;;;;;;;;;1772861;81;21559;-62
2022/09/03 08:08:05;;;;;;;4.60;1.80;;;;;;;;;;1752106;80;22268;-64
2022/09/03 08:10:37;;;;;;;5.72;1.50;;;;;;;;;;1770809;80;21066;-63
2022/09/03 08:13:04;;;;;;;5.25;1.70;;;;;;;;;;1761540;80;20984;-63
2022/09/03 08:15:33;;;;;;;3.40;1.80;;;;;;;;;;1768435;80;21035;-63
2022/09/03 08:18:00;;;;;;;2.90;1.60;;;;;;;;;;1764084;80;21031;-63
2022/09/03 08:20:27;;;;;;;4.40;1.47;;;;;;;;;;1766339;80;21067;-63
2022/09/03 08:23:01;;;;;;;4.12;1.70;;;;;;;;;;1770114;80;21046;-63
2022/09/03 08:25:28;;;;;;;7.22;1.90;;;;;;;;;;1769249;80;21023;-62
2022/09/03 08:27:58;;;;;;;4.12;1.55;;;;;;;;;;1770712;80;21633;-64
2022/09/03 08:30:26;;;;;;;3.83;1.60;;;;;;;;;;1773368;80;21086;-62
2022/09/03 08:32:54;;;;;;;5.03;1.57;;;;;;;;;;1763267;79;21615;-64
2022/09/03 08:35:21;;;;;;;2.55;1.62;;;;;;;;;;1757349;80;21227;-64
2022/09/03 08:37:50;;;;;;;5.33;1.67;;;;;;;;;;1750486;81;21038;-63
2022/09/03 08:40:17;;;;;;;2.60;1.50;;;;;;;;;;1756052;81;21087;-63
2022/09/03 08:43:00;;;;;;;3.40;1.70;;;;;;;;;;1762578;80;21083;-63
2022/09/03 08:45:29;;;;;;;5.30;2.67;;;;;;;;;;1760277;80;21636;-63
2022/09/03 08:48:13;;;;;;;3.87;1.52;;;;;;;;;;1759334;81;22317;-63
2022/09/03 08:50:46;;;;;;;6.40;1.45;;;;;;;;;;1764463;80;21063;-63
2022/09/03 08:53:35;;;;;;;5.53;1.63;;;;;;;;;;1752332;80;22450;-62
2022/09/03 08:56:14;;;;;;;3.40;1.47;;;;;;;;;;1758229;81;21059;-63
2022/09/03 08:58:42;;;;;;;7.03;1.60;;;;;;;;;;1763371;80;21332;-63
2022/09/03 09:01:33;;;;;;;4.72;1.77;;;;;;;;;;1760384;80;21100;-64
2022/09/03 09:04:06;;;;;;;6.40;1.87;;;;;;;;;;1769348;80;21627;-62
2022/09/03 09:07:12;;;;;;;4.90;1.80;;;;;;;;;;1754459;80;21070;-64
2022/09/03 09:10:06;;;;;;;9.10;2.72;;;;;;;;;;1709844;83;21107;-63
2022/09/03 09:12:59;;;;;;;10.65;2.20;;;;;;;;;;1714243;83;21079;-65
2022/09/03 09:15:42;;;;;;;4.95;2.15;;;;;;;;;;1711271;82;21052;-63
2022/09/03 09:18:21;;;;;;;6.03;2.30;;;;;;;;;;1719731;82;21052;-63
2022/09/03 09:20:54;;;;;;;5.40;1.80;;;;;;;;;;1714835;83;21129;-63
2022/09/03 09:23:27;;;;;;;7.00;1.98;;;;;;;;;;1710587;83;22238;-64
2022/09/03 09:25:56;;;;;;;2.67;1.65;;;;;;;;;;1713344;82;21016;-64
2022/09/03 09:28:25;;;;;;;5.28;1.80;;;;;;;;;;1687753;83;21693;-64
2022/09/03 09:30:54;;;;;;;4.60;1.90;;;;;;;;;;1714174;82;21658;-66
2022/09/03 09:33:22;;;;;;;3.95;1.80;;;;;;;;;;1691158;83;21083;-65
2022/09/03 09:35:49;;;;;;;4.58;2.27;;;;;;;;;;1712730;82;21083;-64
2022/09/03 09:38:19;;;;;;;6.70;2.10;;;;;;;;;;1725239;82;21037;-62
2022/09/03 09:40:46;;;;;;;7.55;1.92;;;;;;;;;;1758361;80;21071;-62
2022/09/03 09:43:15;;;;;;;8.25;1.85;;;;;;;;;;1764804;81;21012;-62
2022/09/03 09:45:47;;;;;;;8.28;2.08;;;;;;;;;;1766434;81;21068;-63
2022/09/03 09:48:30;;;;;;;3.50;1.80;;;;;;;;;;1764836;80;21028;-63
2022/09/03 09:51:18;;;;;;;3.25;2.10;;;;;;;;;;1756340;80;21669;-64
2022/09/03 09:53:45;;;;;;;6.03;1.85;;;;;;;;;;1765910;80;21060;-63
2022/09/03 09:56:23;;;;;;;5.25;2.05;;;;;;;;;;1764315;80;21567;-62
2022/09/03 09:58:53;;;;;;;2.92;2.00;;;;;;;;;;1761238;80;21038;-63
2022/09/03 10:01:25;;;;;;;6.67;1.90;;;;;;;;;;1755045;80;21114;-64
2022/09/03 10:04:00;;;;;;;5.00;2.00;;;;;;;;;;1762521;80;21105;-63
2022/09/03 10:09:18;;;;;;;6.17;1.77;;;;;;;;;;1752126;80;21131;-63
2022/09/03 10:11:51;;;;;;;5.12;1.92;;;;;;;;;;1754914;80;21042;-63
2022/09/03 10:14:22;;;;;;;22.65;2.62;;;;;;;;;;1738743;81;21078;-64
2022/09/03 10:16:52;;;;;;;9.30;1.72;;;;;;;;;;1716677;82;21008;-63
2022/09/03 10:19:41;;;;;;;8.23;2.10;;;;;;;;;;1722740;82;21157;-64
2022/09/03 10:22:11;;;;;;;7.97;1.90;;;;;;;;;;1711746;82;21528;-63
2022/09/03 10:24:58;;;;;;;8.28;2.00;;;;;;;;;;1717121;82;21074;-63
2022/09/03 10:27:25;;;;;;;8.43;2.12;;;;;;;;;;1723827;82;21657;-63
2022/09/03 10:29:52;;;;;;;5.03;2.45;;;;;;;;;;1679276;83;21103;-63
2022/09/03 10:32:31;;;;;;;3.58;1.70;;;;;;;;;;1757653;80;21011;-64
2022/09/03 10:35:11;;;;;;;8.93;2.35;;;;;;;;;;1754360;80;21552;-63
2022/09/03 10:37:45;;;;;;;4.53;2.08;;;;;;;;;;1754775;80;21546;-63
2022/09/03 10:40:29;;;;;;;7.15;1.70;;;;;;;;;;1767459;80;21028;-64
2022/09/03 10:43:18;;;;;;;6.10;1.60;;;;;;;;;;1754800;80;21491;-64
2022/09/03 10:46:02;;;;;;;8.73;2.55;;;;;;;;;;1755840;80;21070;-63
2022/09/03 10:48:39;;;;;;;1.82;1.62;;;;;;;;;;1761582;80;21538;-63
2022/09/03 10:51:12;;;;;;;7.90;1.80;;;;;;;;;;1761708;81;21110;-64
2022/09/03 10:53:51;;;;;;;8.33;2.65;;;;;;;;;;1758720;80;21082;-62
2022/09/03 10:56:48;;;;;;;11.40;3.22;;;;;;;;;;1764354;80;21067;-63
2022/09/03 10:59:38;;;;;;;5.35;1.95;;;;;;;;;;1764769;80;21542;-63
2022/09/03 11:02:34;;;;;;;4.25;2.22;;;;;;;;;;1757628;80;21025;-63
2022/09/03 11:05:16;;;;;;;8.20;2.12;;;;;;;;;;1758565;80;21083;-64
2022/09/03 11:07:48;;;;;;;10.32;1.90;;;;;;;;;;1767900;80;21215;-63
2022/09/03 11:10:25;;;;;;;8.75;1.72;;;;;;;;;;1722752;82;22341;-63
2022/09/03 11:13:23;;;;;;;5.30;1.65;;;;;;;;;;1765640;80;21063;-62
2022/09/03 11:16:11;;;;;;;7.30;2.27;;;;;;;;;;1777975;80;21074;-63
2022/09/03 11:18:49;;;;;;;4.33;1.87;;;;;;;;;;1702596;82;21009;-63
2022/09/03 11:21:19;;;;;;;6.15;2.12;;;;;;;;;;1719880;82;21003;-63
2022/09/03 11:23:48;;;;;;;4.45;2.02;;;;;;;;;;1724385;82;21072;-63
2022/09/03 11:26:16;;;;;;;4.35;1.92;;;;;;;;;;1710838;83;21028;-63
2022/09/03 11:29:04;;;;;;;3.72;1.90;;;;;;;;;;1764207;80;21120;-63
2022/09/03 11:31:51;;;;;;;6.45;2.15;;;;;;;;;;1773384;80;21148;-64
2022/09/03 11:34:27;;;;;;;6.58;2.00;;;;;;;;;;1751163;81;21587;-63
2022/09/03 11:37:06;;;;;;;7.53;2.65;;;;;;;;;;1763261;80;21072;-63
2022/09/03 11:39:35;;;;;;;12.15;3.50;;;;;;;;;;1751091;80;21058;-63
2022/09/03 11:42:07;;;;;;;6.53;2.42;;;;;;;;;;1765174;80;21054;-62
2022/09/03 11:44:37;;;;;;;10.10;2.25;;;;;;;;;;1760732;81;21040;-64
2022/09/03 11:47:15;;;;;;;8.63;2.47;;;;;;;;;;1717049;82;21093;-63
2022/09/03 11:49:49;;;;;;;4.53;2.10;;;;;;;;;;1738514;80;21099;-63
2022/09/03 11:52:39;;;;;;;8.18;2.60;;;;;;;;;;1760163;80;21085;-64
2022/09/03 11:54:58;;;;;;;6.37;1.98;;;;;;;;;;1752744;80;21334;-63
2022/09/03 11:57:30;;;;;;;5.55;2.80;;;;;;;;;;1750755;80;21090;-64
2022/09/03 12:00:20;;;;;;;7.50;2.30;;;;;;;;;;1761783;80;21083;-64
2022/09/03 12:02:47;;;;;;;10.60;2.40;;;;;;;;;;1758611;80;21055;-63
2022/09/03 12:05:24;;;;;;;6.22;1.72;;;;;;;;;;1774977;80;21032;-62
2022/09/03 12:08:17;;;;;;;5.62;1.90;;;;;;;;;;1772921;80;21078;-62
2022/09/03 12:11:13;;;;;;;4.55;1.92;;;;;;;;;;1760678;80;21063;-63
2022/09/03 12:13:48;;;;;;;6.80;2.22;;;;;;;;;;1763800;80;21028;-64
2022/09/03 12:16:18;;;;;;;9.70;1.92;;;;;;;;;;1768246;81;21578;-63
2022/09/03 12:18:49;;;;;;;8.23;2.05;;;;;;;;;;1726910;82;21141;-63
2022/09/03 12:21:16;;;;;;;4.05;1.80;;;;;;;;;;1755211;80;21054;-64
2022/09/03 12:23:48;;;;;;;13.35;2.17;;;;;;;;;;1752969;81;21085;-64
2022/09/03 12:26:23;;;;;;;4.72;1.85;;;;;;;;;;1771554;80;21512;-64
2022/09/03 12:28:53;;;;;;;4.10;2.00;;;;;;;;;;1765997;80;21114;-65
2022/09/03 12:31:24;;;;;;;8.30;2.30;;;;;;;;;;1761197;81;21085;-63
2022/09/03 12:33:59;;;;;;;5.80;1.80;;;;;;;;;;1727861;82;21015;-63
2022/09/03 12:36:42;;;;;;;3.58;1.90;;;;;;;;;;1758636;80;21540;-63
2022/09/03 12:39:25;;;;;;;5.28;2.02;;;;;;;;;;1762238;80;21507;-64
2022/09/03 12:42:02;;;;;;;8.75;2.37;;;;;;;;;;1753960;80;21042;-64
2022/09/03 12:44:32;;;;;;;6.45;2.25;;;;;;;;;;1775976;80;21039;-63
2022/09/03 12:47:10;;;;;;;7.75;2.50;;;;;;;;;;1772421;80;21129;-63
2022/09/03 12:49:40;;;;;;;9.05;2.47;;;;;;;;;;1768298;80;21531;-63
2022/09/03 12:52:16;;;;;;;11.73;2.60;;;;;;;;;;1762956;81;21099;-63
2022/09/03 12:54:55;;;;;;;9.70;2.25;;;;;;;;;;1734998;80;21486;-63
2022/09/03 12:57:25;;;;;;;3.55;2.05;;;;;;;;;;1764410;80;21050;-63
2022/09/03 12:59:55;;;;;;;4.87;2.20;;;;;;;;;;1769109;81;21535;-63
2022/09/03 13:02:27;;;;;;;4.70;2.10;;;;;;;;;;1768676;80;21064;-62
2022/09/03 13:04:55;;;;;;;4.67;1.70;;;;;;;;;;1742883;80;21004;-62
2022/09/03 13:07:27;;;;;;;9.63;2.60;;;;;;;;;;1766194;80;20988;-62
2022/09/03 13:09:57;;;;;;;7.53;2.70;;;;;;;;;;1761674;81;21138;-62
2022/09/03 13:12:34;;;;;;;13.00;2.83;;;;;;;;;;1777685;80;20983;-62
2022/09/03 13:15:09;;;;;;;8.05;2.33;;;;;;;;;;1762300;80;21029;-62
2022/09/03 13:17:53;;;;;;;7.97;2.05;;;;;;;;;;1760618;80;21153;-63
2022/09/03 13:20:43;;;;;;;6.40;2.37;;;;;;;;;;1761818;80;21062;-64
2022/09/03 13:23:30;;;;;;;11.08;2.77;;;;;;;;;;1762122;81;21083;-63
2022/09/03 13:26:26;;;;;;;7.50;3.12;;;;;;;;;;1762182;80;21005;-63
2022/09/03 13:29:23;;;;;;;7.72;3.10;;;;;;;;;;1763725;80;21074;-62
2022/09/03 13:31:55;;;;;;;4.40;2.15;;;;;;;;;;1670523;81;21044;-62
2022/09/03 13:34:29;;;;;;;5.22;2.37;;;;;;;;;;1775894;80;21547;-63
2022/09/03 13:37:12;;;;;;;9.40;2.37;;;;;;;;;;1765248;80;21028;-63
2022/09/03 13:39:49;;;;;;;5.20;2.40;;;;;;;;;;1730545;82;21055;-63
2022/09/03 13:42:22;;;;;;;4.92;1.95;;;;;;;;;;1737903;82;22028;-62
2022/09/03 13:44:51;;;;;;;8.35;2.33;;;;;;;;;;1724944;82;21027;-62
2022/09/03 13:50:43;;;;;;;7.20;2.70;;;;;;;;;;1772025;80;21510;-63
2022/09/03 13:53:20;;;;;;;10.75;2.83;;;;;;;;;;1751318;80;21074;-63
2022/09/03 13:55:56;;;;;;;10.25;2.67;;;;;;;;;;1764352;80;21480;-62
2022/09/03 13:58:37;;;;;;;14.58;2.62;;;;;;;;;;1764919;80;20995;-63
2022/09/03 14:01:25;;;;;;;24.47;3.70;;;;;;;;;;1731925;80;21118;-62
2022/09/03 14:03:58;;;;;;;7.97;2.98;;;;;;;;;;1775426;81;21563;-62
2022/09/03 14:06:49;;;;;;;14.07;2.62;;;;;;;;;;1761450;80;21040;-62
2022/09/03 14:09:39;;;;;;;6.45;2.70;;;;;;;;;;1733949;80;21728;-63
2022/09/03 14:12:37;;;;;;;7.08;2.40;;;;;;;;;;1754849;80;21114;-62
2022/09/03 14:15:11;;;;;;;8.88;2.52;;;;;;;;;;1770996;80;21111;-63
2022/09/03 14:17:39;;;;;;;;;;;;;;;;;;1766974;80;21099;-62
2022/09/03 14:20:18;;;;;;;13.28;3.22;;;;;;;;;;1754402;79;20511;-63
2022/09/03 14:22:52;;;;;;;5.55;2.60;;;;;;;;;;1761482;81;21020;-64
2022/09/03 14:25:24;;;;;;;7.17;2.63;;;;;;;;;;1751829;80;21011;-63
2022/09/03 14:27:52;;;;;;;15.93;2.90;;;;;;;;;;1765211;81;21696;-64
2022/09/03 14:30:31;;;;;;;10.78;2.98;;;;;;;;;;1756020;80;21022;-62
2022/09/03 14:33:21;;;;;;;4.87;2.27;;;;;;;;;;1758322;80;21075;-64
2022/09/03 14:35:52;;;;;;;5.60;2.45;;;;;;;;;;1763122;80;21523;-63
2022/09/03 14:38:48;;;;;;;7.62;2.65;;;;;;;;;;1725830;82;21013;-63
2022/09/03 14:41:19;;;;;;;5.97;2.62;;;;;;;;;;1755507;80;21044;-63
2022/09/03 14:44:14;;;;;;;4.30;2.10;;;;;;;;;;1762749;80;21055;-63
2022/09/03 14:46:50;;;;;;;6.05;2.55;;;;;;;;;;1757915;80;21090;-63
2022/09/03 14:49:35;;;;;;;7.15;3.27;;;;;;;;;;1758315;81;21012;-62
2022/09/03 14:52:30;;;;;;;4.40;2.92;;;;;;;;;;1764572;81;21039;-64
2022/09/03 14:55:19;;;;;;;8.35;2.92;;;;;;;;;;1768802;80;21644;-63
2022/09/03 14:58:05;;;;;;;7.20;3.72;;;;;;;;;;1765899;80;21044;-62
2022/09/03 15:01:09;;;;;;;13.45;3.55;;;;;;;;;;1753797;81;21647;-63
2022/09/03 15:03:52;;;;;;;11.90;3.80;;;;;;;;;;1716218;82;21051;-63
2022/09/03 15:06:41;;;;;;;10.53;3.55;;;;;;;;;;1721206;82;21114;-64
2022/09/03 15:09:20;;;;;;;10.55;2.80;;;;;;;;;;1745673;80;21027;-63
2022/09/03 15:11:53;;;;;;;11.70;3.58;;;;;;;;;;1760471;81;21040;-64
2022/09/03 15:14:29;;;;;;;14.95;3.90;;;;;;;;;;1757002;80;21502;-63
2022/09/03 15:17:00;;;;;;;15.18;3.70;;;;;;;;;;1756037;81;21005;-63
2022/09/03 15:19:49;;;;;;;11.15;2.80;;;;;;;;;;1756947;81;21095;-64
2022/09/03 15:22:28;;;;;;;9.13;3.35;;;;;;;;;;1764022;80;21489;-64
2022/09/03 15:25:07;;;;;;;14.73;3.40;;;;;;;;;;1754171;80;21047;-63
2022/09/03 15:28:12;;;;;;;10.63;3.10;;;;;;;;;;1752315;80;21586;-64
2022/09/03 15:30:55;;;;;;;10.05;3.20;;;;;;;;;;1758068;81;21032;-64
2022/09/03 15:33:31;;;;;;;9.85;3.30;;;;;;;;;;1715466;81;21253;-63